AirportContent of METAR report
LYBEMETAR LYBE 060200Z 24004KT CAVOK 19/15 Q1012 NOSIG=
LYBTMETAR LYBT 060200Z VRB02KT CAVOK 15/13 Q1012 NOSIG=
LYKVMETAR LYKV 060200Z 00000KT CAVOK 16/16 Q1013 NOSIG=
LYNIMETAR LYNI 060200Z VRB02KT CAVOK 19/17 Q1012 NOSIG=
LYVRMETAR LYVR 060200Z AUTO 03002KT 8000 0700 R19/1100N R01/P2000N BCFG NSC 15/15 Q1012=
LYUZMETAR LYUZ 060200Z AUTO 32006KT 9999 BKN042/// 16/15 Q1016=
LYPGMETAR LYPG 060200Z 36008KT 260V020 CAVOK 25/14 Q1008 NOSIG=
LYTVMETAR LYTV 060200Z VRB01KT CAVOK 20/17 Q1008=

Data loaded: 2020-07-06 02:09:52 UTC

METAR, TAF, AIRMET, GAMET, SIGMET

Important note: MET information on these web pages are informative and restricted to aeronautical users, must not be used for any commercial purpose, and do not replace flight documentation.